Blaine, WA (98230)

4:51 AM PST on December 05, 2016 (GMT -0800)
NOS_NWLON | | Change Station
Active Advisory: Winter Weather Advisory

Elev 0 ft 48.86 °N, 122.76 °W | Updated 39 minutes ago

Overcast
Overcast
0.0 °F
Feels Like -17 °F
N
12.0
Wind Variable Wind from SE
Gusts 18.0 mph

Today
High -- | Low -- °F
--% Chance of Precip.
Yesterday
High -- | Low -- °F
Precip. -- in
Pressure 30.08 in
Visibility 10.0 miles
Clouds Scattered Clouds 2800 ft
Overcast 4200 ft
Windchill -17 °F
Dew Point Not available.
Humidity Not available.
Rainfall in
Snow Depth Not available.
7:48 AM 4:14 PM
Waxing Crescent, 31% visible
SPECI KBLI 051213Z AUTO 14007KT 10SM SCT028 OVC042 03/01 A3008 RMK AO2 T00330011
Pressure 30.08 in
Visibility 10.0 miles
Clouds Scattered Clouds 2800 ft
Overcast 4200 ft
Windchill -17 °F
Dew Point Not available.
Humidity Not available.
Rainfall in
Snow Depth Not available.
7:48 AM 4:14 PM
Waxing Crescent, 31% visible
SPECI KBLI 051213Z AUTO 14007KT 10SM SCT028 OVC042 03/01 A3008 RMK AO2 T00330011

10-Day Weather Forecast

Almanac

Astronomy

Dec. 05, 2016 Rise Set
Actual Time
Civil Twilight
Nautical Twilight
Astronomical Twilight
Moon
Length of Visible Light
Length of Day
Tomorrow will be .
, % of the Moon is Illuminated

Today's Extremes

State Highs State Lows

Community

WunderPhotos

Upload Photos

1,955,778 photos uploaded!

WunderBlog® & News

Nearby

Air Quality

  Air Quality AQ Index Pollutant
Not available.

Snow Depth

Station Depth Elevation

Earthquake Activity

City Distance Mag. Time & Date
Minimum magnitude displayed is 2.5.

Coastal Water Temperatures

Place Temperature

Stations

Nearby Weather Stations

Station Location Temp. Windchill Dew Point Humidity Wind Precip. Elev Updated Type
                   

Watches & Warnings

Winter Weather Advisory
Issued: 4:15 AM PST Dec. 5, 2016 – National Weather Service

... Winter Weather Advisory remains in effect until noon PST today...

* timing... this morning between 4 am and noon.

* Snow amounts... up to two inches of snow above 500 feet. Accumulation
less than one inch below 500 feet.

* Snow levels... mainly near 500 feet.

* Impacts... hazardous driving conditions are possible during the
morning commute today mainly on the higher hills.

Precautionary/preparedness actions...

A Winter Weather Advisory for snow means that periods of snow could
cause travel difficulties. Use caution while driving.